Time;durP1;ratioP1;P1;durP2;ratioP2;P2;SDS_P1;SDS_P2;PMS_P1;PMS_P2;Temp;Humidity;BMP_temperature;BMP_pressure;BME280_temperature;BME280_humidity;BME280_pressure;Samples;Min_cycle;Max_cycle;Signal;HPM_P1;HPM_P2
2022/07/22 00:00:17;;;;;;;11.82;4.30;;;18.70;91.80;;;;;;5077529;28;20083;-76
2022/07/22 00:02:43;;;;;;;10.48;4.63;;;18.70;91.70;;;;;;5076439;28;20036;-76
2022/07/22 00:05:12;;;;;;;9.68;4.05;;;18.70;91.60;;;;;;5077719;28;20051;-76
2022/07/22 00:07:40;;;;;;;9.30;4.15;;;18.70;91.60;;;;;;5075397;28;20135;-76
2022/07/22 00:10:08;;;;;;;9.70;4.63;;;18.70;91.60;;;;;;5076024;28;20027;-76
2022/07/22 00:12:34;;;;;;;11.20;4.38;;;18.70;91.60;;;;;;5066155;28;20048;-77
2022/07/22 00:15:00;;;;;;;10.57;4.35;;;18.70;91.60;;;;;;5075646;28;20024;-77
2022/07/22 00:17:25;;;;;;;14.88;5.07;;;18.70;91.50;;;;;;5073986;28;20024;-77
2022/07/22 00:19:51;;;;;;;11.27;5.45;;;18.70;91.70;;;;;;5074344;28;20486;-76
2022/07/22 00:22:18;;;;;;;10.95;4.43;;;18.70;91.80;;;;;;5075529;28;20031;-77
2022/07/22 00:24:43;;;;;;;9.65;4.30;;;18.80;91.60;;;;;;5076701;28;20831;-78
2022/07/22 00:27:18;;;;;;;6.63;3.08;;;18.80;91.50;;;;;;5064417;28;20060;-77
2022/07/22 00:29:46;;;;;;;15.20;5.18;;;18.80;91.40;;;;;;5072542;28;20043;-77
2022/07/22 00:32:11;;;;;;;15.82;5.85;;;18.70;91.40;;;;;;5081126;28;20032;-78
2022/07/22 00:34:38;;;;;;;12.73;5.43;;;18.70;91.50;;;;;;5084974;28;20020;-77
2022/07/22 00:37:04;;;;;;;14.10;4.97;;;18.80;91.50;;;;;;5082768;28;20039;-77
2022/07/22 00:39:36;;;;;;;13.75;6.03;;;18.70;91.40;;;;;;5085577;28;20475;-77
2022/07/22 00:42:02;;;;;;;13.85;5.78;;;18.80;91.30;;;;;;5074631;28;20514;-77
2022/07/22 00:44:28;;;;;;;17.67;6.13;;;18.70;91.40;;;;;;5062906;28;20028;-77
2022/07/22 00:46:56;;;;;;;15.75;5.20;;;18.70;91.50;;;;;;5073161;28;20076;-76
2022/07/22 00:49:21;;;;;;;12.00;5.20;;;18.80;91.30;;;;;;5075128;28;20021;-76
2022/07/22 00:51:48;;;;;;;12.68;4.70;;;18.80;91.10;;;;;;5074933;28;20074;-77
2022/07/22 00:54:14;;;;;;;11.02;4.63;;;18.70;91.20;;;;;;5075529;28;20107;-77
2022/07/22 00:56:42;;;;;;;9.82;4.30;;;18.80;91.30;;;;;;5075329;28;20052;-77
2022/07/22 00:59:11;;;;;;;16.23;4.55;;;18.80;91.30;;;;;;5075262;28;20027;-77
2022/07/22 01:01:37;;;;;;;11.57;4.20;;;18.80;91.40;;;;;;5065753;28;20059;-77
2022/07/22 01:04:03;;;;;;;12.07;4.60;;;18.80;91.20;;;;;;5064957;28;20028;-77
2022/07/22 01:06:30;;;;;;;11.10;4.93;;;18.80;91.20;;;;;;5076559;28;20035;-76
2022/07/22 01:08:57;;;;;;;14.18;5.00;;;18.80;91.20;;;;;;5074270;28;20032;-76
2022/07/22 01:11:23;;;;;;;11.00;4.38;;;18.90;91.30;;;;;;5074165;28;20033;-76
2022/07/22 01:13:51;;;;;;;11.60;5.00;;;18.80;91.20;;;;;;5054570;28;20071;-77
2022/07/22 01:16:17;;;;;;;12.65;5.03;;;18.90;91.20;;;;;;5065626;28;20051;-76
2022/07/22 01:18:43;;;;;;;14.48;4.78;;;18.90;91.30;;;;;;5071144;28;20028;-76
2022/07/22 01:21:09;;;;;;;8.90;4.20;;;18.90;91.40;;;;;;5071185;28;20017;-75
2022/07/22 01:23:36;;;;;;;13.52;5.30;;;18.90;91.10;;;;;;5072012;28;20016;-75
2022/07/22 01:26:02;;;;;;;9.77;3.97;;;18.90;91.10;;;;;;5072016;28;20822;-76
2022/07/22 01:28:28;;;;;;;10.43;4.07;;;18.90;91.20;;;;;;5075911;28;20021;-75
2022/07/22 01:30:54;;;;;;;11.25;4.57;;;18.90;91.10;;;;;;5074075;28;20077;-76
2022/07/22 01:33:21;;;;;;;11.60;3.85;;;18.90;91.00;;;;;;5055816;28;20017;-76
2022/07/22 01:35:47;;;;;;;8.35;3.83;;;18.90;90.80;;;;;;5053620;28;20487;-77
2022/07/22 01:38:14;;;;;;;11.52;4.05;;;18.90;90.60;;;;;;5071627;28;20024;-77
2022/07/22 01:40:41;;;;;;;11.15;4.47;;;18.90;90.70;;;;;;5072052;28;20041;-77
2022/07/22 01:43:06;;;;;;;15.02;4.60;;;18.90;90.70;;;;;;5069947;28;20025;-77
2022/07/22 01:45:33;;;;;;;11.63;4.07;;;18.90;90.70;;;;;;5059950;28;20083;-76
2022/07/22 01:47:58;;;;;;;10.70;4.85;;;18.90;90.80;;;;;;5071939;28;20103;-77
2022/07/22 01:50:24;;;;;;;15.77;5.22;;;18.90;90.80;;;;;;5075248;28;20812;-76
2022/07/22 01:52:50;;;;;;;14.55;5.50;;;18.90;90.70;;;;;;5073415;28;20040;-76
2022/07/22 01:55:16;;;;;;;10.98;4.88;;;18.90;90.70;;;;;;5072666;28;20397;-76
2022/07/22 01:57:43;;;;;;;11.93;4.10;;;18.90;90.60;;;;;;5071088;28;20031;-77
2022/07/22 02:00:10;;;;;;;12.35;4.32;;;18.80;90.60;;;;;;5066502;28;20021;-77
2022/07/22 02:02:36;;;;;;;16.13;4.65;;;18.80;90.60;;;;;;5063094;28;20056;-76
2022/07/22 02:05:04;;;;;;;16.17;4.70;;;18.80;90.80;;;;;;5072085;28;20064;-77
2022/07/22 02:07:29;;;;;;;9.98;3.88;;;18.80;90.70;;;;;;5071663;28;20027;-76
2022/07/22 02:09:55;;;;;;;11.48;4.45;;;18.80;90.60;;;;;;5073070;28;20021;-76
2022/07/22 02:12:21;;;;;;;15.40;4.20;;;18.80;90.50;;;;;;5071401;28;20033;-77
2022/07/22 02:14:47;;;;;;;10.68;3.90;;;18.80;90.40;;;;;;5070198;28;20025;-76
2022/07/22 02:17:13;;;;;;;10.30;4.30;;;18.70;90.50;;;;;;5057396;28;20104;-76
2022/07/22 02:19:41;;;;;;;11.40;4.70;;;18.70;90.50;;;;;;5075676;28;20028;-76
2022/07/22 02:22:08;;;;;;;12.02;4.63;;;18.70;90.50;;;;;;5076904;28;20036;-76
2022/07/22 02:24:34;;;;;;;11.43;4.07;;;18.70;90.70;;;;;;5076285;28;20072;-76
2022/07/22 02:27:01;;;;;;;10.95;4.00;;;18.70;90.70;;;;;;5075001;28;20056;-76
2022/07/22 02:29:27;;;;;;;14.00;5.18;;;18.70;90.80;;;;;;5073585;28;20056;-77
2022/07/22 02:31:52;;;;;;;14.18;4.60;;;18.60;90.70;;;;;;5076073;28;20052;-76
2022/07/22 02:34:18;;;;;;;13.35;4.10;;;18.70;90.70;;;;;;5075767;28;20505;-76
2022/07/22 02:36:44;;;;;;;15.52;4.50;;;18.60;90.50;;;;;;5075496;28;20082;-76
2022/07/22 02:39:12;;;;;;;11.10;4.60;;;18.60;90.40;;;;;;5075491;28;20105;-76
2022/07/22 02:41:40;;;;;;;10.80;4.63;;;18.60;90.60;;;;;;5069063;28;20099;-75
2022/07/22 02:44:06;;;;;;;11.10;5.00;;;18.60;90.60;;;;;;5065038;28;20079;-76
2022/07/22 02:46:32;;;;;;;14.60;5.03;;;18.50;90.60;;;;;;5075448;28;20028;-77
2022/07/22 02:48:58;;;;;;;12.43;4.45;;;18.50;90.60;;;;;;5074028;28;20013;-76
2022/07/22 02:51:26;;;;;;;10.68;4.82;;;18.50;90.50;;;;;;5073015;28;20242;-76
2022/07/22 02:53:51;;;;;;;9.88;4.72;;;18.60;90.50;;;;;;5072682;28;20048;-76
2022/07/22 02:56:17;;;;;;;11.48;4.60;;;18.60;90.60;;;;;;5074022;28;20360;-77
2022/07/22 02:58:43;;;;;;;12.32;4.05;;;18.50;90.70;;;;;;5076818;28;20028;-77
2022/07/22 03:01:14;;;;;;;8.13;4.18;;;18.50;90.60;;;;;;5069229;28;20024;-77
2022/07/22 03:03:40;;;;;;;11.57;4.28;;;18.50;90.70;;;;;;5082939;28;20047;-76
2022/07/22 03:06:06;;;;;;;9.23;4.13;;;18.50;90.90;;;;;;5090501;28;20024;-75
2022/07/22 03:08:33;;;;;;;9.10;4.32;;;18.50;91.00;;;;;;5082508;28;20028;-76
2022/07/22 03:10:59;;;;;;;16.73;5.00;;;18.50;90.70;;;;;;5078500;28;20025;-76
2022/07/22 03:13:25;;;;;;;11.77;4.88;;;18.60;90.60;;;;;;5074909;28;20062;-76
2022/07/22 03:15:50;;;;;;;7.68;4.20;;;18.60;90.70;;;;;;5074522;28;20021;-76
2022/07/22 03:18:16;;;;;;;13.43;5.30;;;18.60;90.70;;;;;;5073737;28;20509;-76
2022/07/22 03:20:41;;;;;;;11.10;4.70;;;18.60;90.70;;;;;;5074822;28;20021;-76
2022/07/22 03:23:07;;;;;;;12.07;5.03;;;18.60;90.50;;;;;;5066520;28;20024;-76
2022/07/22 03:25:34;;;;;;;15.40;5.10;;;18.60;90.60;;;;;;5067852;28;20099;-75
2022/07/22 03:27:59;;;;;;;13.55;5.28;;;18.60;90.60;;;;;;5075900;28;20013;-76
2022/07/22 03:30:25;;;;;;;12.85;5.07;;;18.60;90.70;;;;;;5075014;28;20066;-77
2022/07/22 03:32:50;;;;;;;11.60;5.35;;;18.60;90.50;;;;;;5070566;28;20494;-76
2022/07/22 03:35:16;;;;;;;11.93;4.40;;;18.60;90.50;;;;;;5075034;28;20016;-75
2022/07/22 03:37:43;;;;;;;11.98;4.75;;;18.60;90.60;;;;;;5061116;28;20035;-75
2022/07/22 03:40:10;;;;;;;9.82;4.72;;;18.60;90.60;;;;;;5059270;28;20108;-75
2022/07/22 03:42:35;;;;;;;11.45;5.05;;;18.60;90.70;;;;;;5072262;28;20044;-76
2022/07/22 03:45:01;;;;;;;11.90;5.18;;;18.60;90.70;;;;;;5071160;28;20138;-77
2022/07/22 03:47:27;;;;;;;11.82;4.50;;;18.60;90.60;;;;;;5064859;28;20016;-75
2022/07/22 03:49:53;;;;;;;8.85;4.50;;;18.60;90.50;;;;;;5072303;28;20050;-76
2022/07/22 03:52:18;;;;;;;9.20;4.30;;;18.60;90.50;;;;;;5072244;28;20033;-76
2022/07/22 03:54:44;;;;;;;11.52;4.60;;;18.60;90.70;;;;;;5071435;28;20150;-77
2022/07/22 03:57:10;;;;;;;10.15;4.80;;;18.60;90.90;;;;;;5071415;28;20028;-77
2022/07/22 03:59:36;;;;;;;12.95;4.03;;;18.60;90.70;;;;;;5071840;28;20036;-77
2022/07/22 04:02:03;;;;;;;10.65;5.05;;;18.60;90.60;;;;;;5066511;28;20036;-77
2022/07/22 04:04:28;;;;;;;8.60;4.20;;;18.60;90.60;;;;;;5072902;28;20059;-75
2022/07/22 04:06:54;;;;;;;9.98;4.07;;;18.60;90.60;;;;;;5072276;28;20102;-76
2022/07/22 04:09:20;;;;;;;9.27;4.15;;;18.60;90.50;;;;;;5073202;28;20027;-76
2022/07/22 04:11:46;;;;;;;8.15;4.55;;;18.60;90.50;;;;;;5073136;28;20036;-75
2022/07/22 04:14:12;;;;;;;10.43;4.13;;;18.60;90.80;;;;;;5071557;28;20028;-75
2022/07/22 04:16:37;;;;;;;8.02;3.97;;;18.60;90.80;;;;;;5073922;28;20016;-75
2022/07/22 04:19:04;;;;;;;6.88;3.70;;;18.70;90.70;;;;;;5073798;28;20060;-75
2022/07/22 04:21:30;;;;;;;9.45;4.53;;;18.70;90.80;;;;;;5070596;28;20022;-75
2022/07/22 04:23:56;;;;;;;10.23;4.15;;;18.70;90.70;;;;;;5070475;28;20111;-75
2022/07/22 04:26:22;;;;;;;8.13;4.03;;;18.70;90.80;;;;;;5070582;28;20078;-75
2022/07/22 04:28:48;;;;;;;10.52;4.50;;;18.70;90.60;;;;;;5069760;28;20469;-75
2022/07/22 04:31:14;;;;;;;8.77;3.92;;;18.70;90.60;;;;;;5057959;28;20076;-75
2022/07/22 04:33:39;;;;;;;13.00;5.00;;;18.70;90.60;;;;;;5069480;28;20052;-76
2022/07/22 04:36:05;;;;;;;9.75;4.97;;;18.60;90.60;;;;;;5070986;28;20546;-77
2022/07/22 04:38:31;;;;;;;8.65;4.57;;;18.60;90.80;;;;;;5070555;28;20402;-75
2022/07/22 04:40:59;;;;;;;11.43;4.63;;;18.60;90.90;;;;;;5071838;28;20048;-76
2022/07/22 04:43:26;;;;;;;11.35;4.47;;;18.60;90.90;;;;;;5070093;28;20051;-77
2022/07/22 04:45:51;;;;;;;8.27;3.83;;;18.50;91.00;;;;;;5064579;28;20088;-77
2022/07/22 04:48:17;;;;;;;9.35;3.72;;;18.50;90.90;;;;;;5071040;28;20506;-76
2022/07/22 04:50:44;;;;;;;5.95;2.15;;;18.50;90.80;;;;;;5071012;28;20025;-75
2022/07/22 04:53:12;;;;;;;9.93;3.10;;;18.50;90.60;;;;;;5062024;28;20479;-77
2022/07/22 04:55:38;;;;;;;6.07;2.63;;;18.40;90.50;;;;;;5071304;28;20024;-76
2022/07/22 04:58:06;;;;;;;7.85;2.78;;;18.40;90.40;;;;;;5071654;28;20714;-76
2022/07/22 05:00:32;;;;;;;8.27;2.42;;;18.30;90.30;;;;;;5062454;28;20100;-76
2022/07/22 05:02:57;;;;;;;6.80;2.65;;;18.30;90.60;;;;;;5070941;28;20087;-77
2022/07/22 05:05:24;;;;;;;9.98;3.70;;;18.30;90.50;;;;;;5071477;28;20051;-76
2022/07/22 05:07:49;;;;;;;7.25;2.80;;;18.20;90.40;;;;;;5071556;28;20048;-76
2022/07/22 05:10:15;;;;;;;12.43;2.95;;;18.20;90.60;;;;;;5070892;28;20058;-76
2022/07/22 05:12:41;;;;;;;7.95;3.10;;;18.30;90.70;;;;;;5070696;28;20032;-75
2022/07/22 05:15:07;;;;;;;6.93;2.90;;;18.20;90.60;;;;;;5063400;28;20028;-76
2022/07/22 05:17:33;;;;;;;11.25;3.22;;;18.20;90.70;;;;;;5070206;28;20115;-75
2022/07/22 05:20:00;;;;;;;6.53;2.78;;;18.20;90.80;;;;;;5070765;28;20458;-76
2022/07/22 05:22:26;;;;;;;6.22;2.60;;;18.20;90.60;;;;;;5070775;28;20020;-76
2022/07/22 05:24:52;;;;;;;9.88;3.00;;;18.20;90.50;;;;;;5071470;28;20459;-76
2022/07/22 05:27:18;;;;;;;11.25;3.72;;;18.20;90.50;;;;;;5071389;28;20482;-74
2022/07/22 05:29:43;;;;;;;11.40;3.50;;;18.20;90.70;;;;;;5075703;28;20021;-75
2022/07/22 05:32:11;;;;;;;10.13;3.60;;;18.20;90.50;;;;;;5077632;28;20077;-76
2022/07/22 05:34:37;;;;;;;8.82;2.80;;;18.20;90.50;;;;;;5072857;28;20043;-76
2022/07/22 05:37:03;;;;;;;9.73;2.95;;;18.30;90.60;;;;;;5074345;28;20021;-78
2022/07/22 05:39:28;;;;;;;6.55;2.55;;;18.40;90.50;;;;;;5070956;28;20035;-76
2022/07/22 05:41:54;;;;;;;8.65;3.28;;;18.40;90.00;;;;;;5071600;28;20044;-77
2022/07/22 05:44:19;;;;;;;8.10;2.80;;;18.50;90.00;;;;;;5069174;28;20016;-77
2022/07/22 05:46:45;;;;;;;6.18;2.50;;;18.60;90.00;;;;;;5068266;28;20029;-77
2022/07/22 05:49:11;;;;;;;7.00;2.63;;;18.70;89.80;;;;;;5069551;28;20021;-75
2022/07/22 05:51:40;;;;;;;7.85;2.67;;;18.70;89.00;;;;;;5069976;28;20082;-76
2022/07/22 05:54:07;;;;;;;8.75;2.97;;;18.70;88.40;;;;;;5070715;28;20031;-78
2022/07/22 05:56:32;;;;;;;10.60;2.90;;;18.70;88.70;;;;;;5069727;28;20027;-77
2022/07/22 05:58:58;;;;;;;8.63;2.78;;;18.80;89.10;;;;;;5063206;28;20387;-78
2022/07/22 06:01:25;;;;;;;7.22;2.25;;;18.80;88.60;;;;;;5064624;28;20542;-77
2022/07/22 06:03:50;;;;;;;9.85;3.25;;;18.80;89.10;;;;;;5069273;28;20080;-77
2022/07/22 06:06:17;;;;;;;9.38;2.58;;;18.80;89.10;;;;;;5069135;28;20020;-77
2022/07/22 06:08:43;;;;;;;9.32;2.40;;;18.90;88.00;;;;;;5070259;28;20033;-77
2022/07/22 06:11:08;;;;;;;6.68;2.40;;;18.90;87.70;;;;;;5064720;28;20062;-77
2022/07/22 06:13:34;;;;;;;7.22;2.63;;;18.90;87.50;;;;;;5069482;28;20028;-76
2022/07/22 06:16:00;;;;;;;8.43;2.47;;;18.90;87.30;;;;;;5063386;28;20475;-77
2022/07/22 06:18:31;;;;;;;8.43;2.45;;;18.90;87.70;;;;;;5070885;28;20032;-76
2022/07/22 06:20:57;;;;;;;8.27;2.40;;;19.00;87.30;;;;;;5070050;28;20021;-76
2022/07/22 06:23:26;;;;;;;4.88;1.30;;;19.00;86.60;;;;;;5069683;28;20032;-77
2022/07/22 06:25:51;;;;;;;9.20;2.60;;;19.00;86.00;;;;;;5071877;28;20056;-77
2022/07/22 06:28:17;;;;;;;9.05;4.68;;;19.10;85.00;;;;;;5072044;28;20056;-77
2022/07/22 06:30:43;;;;;;;8.18;2.47;;;19.10;84.50;;;;;;5064908;28;20492;-78
2022/07/22 06:33:08;;;;;;;7.70;1.95;;;19.10;84.20;;;;;;5071573;28;20041;-78
2022/07/22 06:35:35;;;;;;;10.35;2.10;;;19.10;83.80;;;;;;5070809;28;20521;-76
2022/07/22 06:38:00;;;;;;;7.40;2.28;;;19.20;84.40;;;;;;5069164;28;20032;-76
2022/07/22 06:40:26;;;;;;;6.95;2.20;;;19.20;84.80;;;;;;5056055;28;20041;-76
2022/07/22 06:42:52;;;;;;;8.52;1.80;;;19.20;84.20;;;;;;5071897;28;20877;-76
2022/07/22 06:45:17;;;;;;;5.10;1.83;;;19.20;84.30;;;;;;5065028;28;20112;-76
2022/07/22 06:47:43;;;;;;;5.93;1.90;;;19.20;84.10;;;;;;5069114;28;20357;-75
2022/07/22 06:50:09;;;;;;;6.68;1.95;;;19.20;84.60;;;;;;5064931;28;20032;-76
2022/07/22 06:52:39;;;;;;;5.95;2.40;;;19.30;85.40;;;;;;5071688;28;20487;-76
2022/07/22 06:55:05;;;;;;;8.50;2.33;;;19.40;85.30;;;;;;5072237;28;20154;-76
2022/07/22 06:57:30;;;;;;;4.78;1.15;;;19.40;85.50;;;;;;5072071;28;20016;-76
2022/07/22 06:59:56;;;;;;;4.75;1.30;;;19.50;83.10;;;;;;5068778;28;20040;-76
2022/07/22 07:02:22;;;;;;;4.55;1.52;;;19.60;82.20;;;;;;5061436;28;20036;-77
2022/07/22 07:04:47;;;;;;;6.28;1.63;;;19.70;81.70;;;;;;5073159;28;20041;-76
2022/07/22 07:07:13;;;;;;;4.93;1.20;;;19.80;81.30;;;;;;5069707;28;20032;-76
2022/07/22 07:09:39;;;;;;;12.90;1.98;;;19.90;80.70;;;;;;5061527;28;20029;-74
2022/07/22 07:12:04;;;;;;;6.68;1.85;;;20.10;80.00;;;;;;5062549;28;20041;-75
2022/07/22 07:14:30;;;;;;;10.65;1.67;;;20.10;79.50;;;;;;5065519;28;20020;-77
2022/07/22 07:16:56;;;;;;;9.43;1.50;;;20.10;79.30;;;;;;5060802;28;20061;-76
2022/07/22 07:19:22;;;;;;;14.40;1.92;;;20.20;79.50;;;;;;5066438;28;20017;-75
2022/07/22 07:21:48;;;;;;;14.57;2.00;;;20.20;79.30;;;;;;5062007;28;20048;-76
2022/07/22 07:24:13;;;;;;;8.02;1.63;;;20.20;79.40;;;;;;5069497;28;20029;-76
2022/07/22 07:26:39;;;;;;;9.15;1.98;;;20.20;79.10;;;;;;5066035;28;20033;-75
2022/07/22 07:29:05;;;;;;;8.75;1.60;;;20.30;78.70;;;;;;5064487;28;20047;-76
2022/07/22 07:31:30;;;;;;;8.63;1.45;;;20.40;78.60;;;;;;5062343;28;20028;-76
2022/07/22 07:33:56;;;;;;;10.25;1.92;;;20.40;78.10;;;;;;5064061;28;20078;-76
2022/07/22 07:36:22;;;;;;;8.52;1.80;;;20.50;77.90;;;;;;5064770;28;20086;-76
2022/07/22 07:38:48;;;;;;;10.45;1.88;;;20.60;77.50;;;;;;5064638;28;20057;-76
2022/07/22 07:41:14;;;;;;;7.93;1.55;;;20.70;77.10;;;;;;5064340;28;20037;-76
2022/07/22 07:43:40;;;;;;;6.45;2.03;;;20.70;76.90;;;;;;5063919;28;20059;-76
2022/07/22 07:46:06;;;;;;;5.93;1.42;;;20.80;76.70;;;;;;5067191;28;20052;-75
2022/07/22 07:48:31;;;;;;;5.18;1.25;;;20.90;76.40;;;;;;5058231;28;20091;-75
2022/07/22 07:50:57;;;;;;;7.25;2.10;;;20.90;76.00;;;;;;5072118;28;20498;-76
2022/07/22 07:53:22;;;;;;;6.32;1.20;;;20.80;76.20;;;;;;5071220;28;20044;-75
2022/07/22 07:55:50;;;;;;;13.90;2.25;;;20.80;76.30;;;;;;5066386;28;20437;-76
2022/07/22 07:58:15;;;;;;;13.32;2.75;;;20.90;76.20;;;;;;5072869;28;20025;-77
2022/07/22 08:00:42;;;;;;;9.55;2.05;;;20.90;76.00;;;;;;5064854;28;20029;-76
2022/07/22 08:03:08;;;;;;;4.20;1.30;;;20.90;75.90;;;;;;5059454;28;20021;-73
2022/07/22 08:05:35;;;;;;;11.48;2.35;;;21.10;75.90;;;;;;5062387;28;20048;-73
2022/07/22 08:08:01;;;;;;;9.68;1.45;;;21.50;74.80;;;;;;5051979;28;20162;-74
2022/07/22 08:10:28;;;;;;;5.80;1.73;;;21.80;73.70;;;;;;5056040;28;20029;-73
2022/07/22 08:12:56;;;;;;;5.88;1.60;;;22.00;72.30;;;;;;5063339;28;20400;-74
2022/07/22 08:15:21;;;;;;;6.30;1.38;;;22.20;71.40;;;;;;5055275;28;20020;-73
2022/07/22 08:17:47;;;;;;;10.45;1.60;;;22.40;70.20;;;;;;5054617;28;20025;-73
2022/07/22 08:20:13;;;;;;;7.10;1.65;;;22.60;69.90;;;;;;5056694;28;20048;-72
2022/07/22 08:22:38;;;;;;;6.07;1.55;;;22.60;69.10;;;;;;5055395;28;20033;-73
2022/07/22 08:25:04;;;;;;;3.58;1.15;;;22.60;69.30;;;;;;5052224;28;20025;-71
2022/07/22 08:27:30;;;;;;;2.25;1.10;;;22.70;69.10;;;;;;5054669;28;20108;-73
2022/07/22 08:29:56;;;;;;;3.97;0.93;;;22.70;69.00;;;;;;5053276;28;20154;-74
2022/07/22 08:32:22;;;;;;;4.43;1.40;;;22.70;69.10;;;;;;5056373;28;20515;-74
2022/07/22 08:34:47;;;;;;;4.70;1.42;;;22.70;68.40;;;;;;5053001;28;20020;-73
2022/07/22 08:37:13;;;;;;;5.63;1.00;;;22.40;68.90;;;;;;5055773;28;20040;-72
2022/07/22 08:39:38;;;;;;;5.03;1.23;;;22.40;69.40;;;;;;5055269;28;20118;-73
2022/07/22 08:42:04;;;;;;;10.75;1.80;;;22.50;69.00;;;;;;5056326;28;20183;-72
2022/07/22 08:44:31;;;;;;;8.18;1.40;;;22.80;67.80;;;;;;5053305;28;20363;-72
2022/07/22 08:46:59;;;;;;;7.20;1.90;;;23.00;67.20;;;;;;5055323;28;20029;-73
2022/07/22 08:49:25;;;;;;;6.38;1.67;;;23.00;66.80;;;;;;5054857;28;20028;-73
2022/07/22 08:51:50;;;;;;;4.35;1.20;;;23.00;66.90;;;;;;5051928;28;20044;-73
2022/07/22 08:54:16;;;;;;;7.97;1.48;;;23.00;67.00;;;;;;5051810;28;20028;-72
2022/07/22 08:56:45;;;;;;;4.72;1.42;;;23.10;66.70;;;;;;5055196;28;20539;-73
2022/07/22 08:59:10;;;;;;;4.53;1.48;;;23.10;66.50;;;;;;5052479;28;20111;-73
2022/07/22 09:01:36;;;;;;;2.38;1.10;;;22.90;67.00;;;;;;5053662;28;20605;-73
2022/07/22 09:04:02;;;;;;;6.22;1.90;;;22.70;67.80;;;;;;5050759;28;20028;-73
2022/07/22 09:06:33;;;;;;;4.50;1.20;;;22.60;68.10;;;;;;5054867;28;20060;-73
2022/07/22 09:08:59;;;;;;;;;;;22.70;68.30;;;;;;5063147;28;20072;-75
2022/07/22 09:11:28;;;;;;;8.80;1.55;;;22.60;67.50;;;;;;5065846;28;20458;-75
2022/07/22 09:13:56;;;;;;;3.65;1.13;;;22.50;67.80;;;;;;5063582;28;20040;-75
2022/07/22 09:16:41;;;;;;;4.63;1.45;;;22.20;68.40;;;;;;5062660;28;20399;-75
2022/07/22 09:19:07;;;;;;;4.90;1.45;;;21.90;69.50;;;;;;5059035;28;20021;-76
2022/07/22 09:21:36;;;;;;;3.25;1.00;;;21.80;70.50;;;;;;5061097;28;20028;-75
2022/07/22 09:24:03;;;;;;;3.67;1.20;;;21.60;70.80;;;;;;5063331;28;20044;-76
2022/07/22 09:26:36;;;;;;;5.97;1.73;;;21.60;71.00;;;;;;5067232;28;20052;-76
2022/07/22 09:29:04;;;;;;;3.03;1.13;;;21.50;71.30;;;;;;5062487;28;20052;-76
2022/07/22 09:31:35;;;;;;;5.20;1.88;;;21.50;71.30;;;;;;5059133;28;20056;-75
2022/07/22 09:34:02;;;;;;;6.85;1.73;;;21.60;71.10;;;;;;5060867;28;20093;-75
2022/07/22 09:36:28;;;;;;;5.70;2.78;;;21.60;69.00;;;;;;5067830;28;20020;-76
2022/07/22 09:38:54;;;;;;;8.80;4.43;;;21.70;70.00;;;;;;5056694;28;20047;-76
2022/07/22 09:41:20;;;;;;;7.35;4.30;;;21.80;70.30;;;;;;5052527;28;20736;-76
2022/07/22 09:43:46;;;;;;;8.63;4.13;;;21.90;70.10;;;;;;5063306;28;20031;-75
2022/07/22 09:46:11;;;;;;;7.95;3.83;;;21.90;69.80;;;;;;5066759;28;20025;-76
2022/07/22 09:48:38;;;;;;;8.40;3.25;;;21.90;69.90;;;;;;5068019;28;20759;-75
2022/07/22 09:51:05;;;;;;;6.90;2.83;;;22.00;69.70;;;;;;5069472;28;20077;-75
2022/07/22 09:53:31;;;;;;;6.55;2.85;;;22.00;69.50;;;;;;5067957;28;20488;-76
2022/07/22 09:55:58;;;;;;;6.55;2.65;;;22.10;69.10;;;;;;5069616;28;20475;-75
2022/07/22 09:58:25;;;;;;;6.75;1.85;;;22.20;68.90;;;;;;5068352;28;20843;-75
2022/07/22 10:00:52;;;;;;;4.32;1.25;;;22.20;68.20;;;;;;5067918;28;20082;-76
2022/07/22 10:03:19;;;;;;;3.17;1.10;;;22.30;68.30;;;;;;5066569;28;20041;-76
2022/07/22 10:05:45;;;;;;;4.47;1.40;;;22.40;66.10;;;;;;5067921;28;20024;-76
2022/07/22 10:08:11;;;;;;;3.25;0.80;;;22.40;64.00;;;;;;5068175;28;20104;-75
2022/07/22 10:10:38;;;;;;;6.63;1.50;;;22.40;64.20;;;;;;5058774;28;20169;-75
2022/07/22 10:13:10;;;;;;;4.07;1.20;;;22.40;65.00;;;;;;5069757;28;20515;-76
2022/07/22 10:15:36;;;;;;;4.03;1.50;;;22.50;65.30;;;;;;5068030;28;20048;-77
2022/07/22 10:18:13;;;;;;;4.20;1.20;;;22.60;65.00;;;;;;5078767;28;20021;-75
2022/07/22 10:20:39;;;;;;;7.18;1.50;;;22.70;62.60;;;;;;5062191;28;20017;-76
2022/07/22 10:23:08;;;;;;;2.50;1.00;;;22.70;65.00;;;;;;5073873;28;20969;-75
2022/07/22 10:25:53;;;;;;;4.65;1.02;;;22.70;61.90;;;;;;5074116;28;20020;-75
2022/07/22 10:28:28;;;;;;;4.18;1.20;;;22.60;63.50;;;;;;5075177;28;20047;-75
2022/07/22 10:31:24;;;;;;;3.35;1.00;;;22.60;65.60;;;;;;5071688;28;20032;-78
2022/07/22 10:33:52;;;;;;;4.25;1.08;;;22.50;64.20;;;;;;5072889;28;20029;-78
2022/07/22 10:36:42;;;;;;;4.75;1.08;;;22.60;64.70;;;;;;5073716;28;20162;-75
2022/07/22 10:39:11;;;;;;;4.28;1.20;;;23.00;64.00;;;;;;5057778;28;20047;-77
2022/07/22 10:41:39;;;;;;;4.15;1.10;;;23.30;61.80;;;;;;5074351;28;20036;-77
2022/07/22 10:44:06;;;;;;;3.25;1.00;;;23.40;61.60;;;;;;5073030;28;20017;-74
2022/07/22 10:46:54;;;;;;;6.40;1.25;;;23.60;62.80;;;;;;5075321;28;20012;-77
2022/07/22 10:49:23;;;;;;;2.80;0.90;;;23.70;60.50;;;;;;5076368;28;20012;-76
2022/07/22 10:52:07;;;;;;;2.25;0.95;;;23.50;61.10;;;;;;5071857;28;20128;-76
2022/07/22 10:54:33;;;;;;;4.60;1.30;;;23.50;62.50;;;;;;5055112;28;20554;-76
2022/07/22 10:57:02;;;;;;;2.60;1.02;;;23.50;61.30;;;;;;5071130;28;20107;-77
2022/07/22 10:59:28;;;;;;;4.88;1.50;;;23.50;61.60;;;;;;5071214;28;20017;-75
2022/07/22 11:01:54;;;;;;;3.53;1.25;;;23.60;60.10;;;;;;5072639;28;20105;-76
2022/07/22 11:04:21;;;;;;;4.85;0.88;;;23.60;60.90;;;;;;5071774;28;20027;-76
2022/07/22 11:06:53;;;;;;;6.40;1.90;;;23.50;60.90;;;;;;5069094;28;20979;-77
2022/07/22 11:09:23;;;;;;;3.58;1.17;;;23.60;57.40;;;;;;5057740;28;20044;-75
2022/07/22 11:11:53;;;;;;;4.47;1.20;;;23.70;59.20;;;;;;5072116;28;20116;-76
2022/07/22 11:14:35;;;;;;;3.08;1.20;;;23.70;61.00;;;;;;5072721;28;20048;-76
2022/07/22 11:17:10;;;;;;;5.45;1.45;;;23.80;63.90;;;;;;5070070;28;20013;-76
2022/07/22 11:19:37;;;;;;;5.85;1.20;;;23.90;64.00;;;;;;5071715;28;20487;-75
2022/07/22 11:22:08;;;;;;;6.38;1.35;;;24.00;64.00;;;;;;5071649;28;20029;-75
2022/07/22 11:24:35;;;;;;;3.83;1.08;;;24.00;64.30;;;;;;5063769;28;20143;-77
2022/07/22 11:27:02;;;;;;;5.55;1.15;;;24.00;64.20;;;;;;5064235;28;20021;-76
2022/07/22 11:29:34;;;;;;;3.70;1.20;;;24.20;64.20;;;;;;5058612;28;20028;-76
2022/07/22 11:32:01;;;;;;;10.27;1.17;;;24.40;63.60;;;;;;5063925;28;20035;-77
2022/07/22 11:34:28;;;;;;;4.40;1.63;;;24.60;63.30;;;;;;5071186;28;20023;-77
2022/07/22 11:36:54;;;;;;;8.50;2.10;;;24.90;62.20;;;;;;5070159;28;20025;-77
2022/07/22 11:39:26;;;;;;;7.07;2.40;;;25.20;61.60;;;;;;5069868;28;20107;-75
2022/07/22 11:41:53;;;;;;;9.43;3.38;;;25.50;62.00;;;;;;5072007;28;20075;-77
2022/07/22 11:44:25;;;;;;;6.32;1.63;;;25.70;60.80;;;;;;5072184;28;20506;-77
2022/07/22 11:46:51;;;;;;;9.02;2.60;;;25.70;55.00;;;;;;5070600;28;20040;-77
2022/07/22 11:49:20;;;;;;;8.63;2.15;;;25.50;59.30;;;;;;5063299;28;20390;-77
2022/07/22 11:51:46;;;;;;;6.28;1.77;;;25.30;59.10;;;;;;5065016;28;20694;-77
2022/07/22 11:54:13;;;;;;;7.05;2.67;;;25.10;61.50;;;;;;5063995;28;20025;-78
2022/07/22 11:56:39;;;;;;;7.68;2.60;;;24.90;63.10;;;;;;5060500;28;20103;-76
2022/07/22 11:59:06;;;;;;;4.80;1.98;;;24.80;63.70;;;;;;5063456;28;20025;-76
2022/07/22 12:01:34;;;;;;;5.15;2.05;;;24.60;57.60;;;;;;5061218;28;20482;-76
2022/07/22 12:04:06;;;;;;;6.75;1.80;;;24.50;63.70;;;;;;5062009;28;20498;-76
2022/07/22 12:06:38;;;;;;;3.75;1.35;;;24.40;62.10;;;;;;5056632;28;20027;-77
2022/07/22 12:09:06;;;;;;;8.02;2.30;;;24.30;57.70;;;;;;5071072;28;20509;-77
2022/07/22 12:11:32;;;;;;;7.00;1.85;;;24.20;64.50;;;;;;5070830;28;20029;-76
2022/07/22 12:14:07;;;;;;;4.40;1.35;;;24.30;62.70;;;;;;5071207;28;20060;-77
2022/07/22 12:16:33;;;;;;;5.80;1.30;;;24.50;60.10;;;;;;5071519;28;20095;-76
2022/07/22 12:19:05;;;;;;;6.32;1.98;;;24.50;56.20;;;;;;5071435;28;20108;-77
2022/07/22 12:21:33;;;;;;;7.35;1.95;;;24.70;62.50;;;;;;5071449;28;21140;-75
2022/07/22 12:24:05;;;;;;;5.00;1.30;;;24.90;62.90;;;;;;5067841;28;20028;-76
2022/07/22 12:26:48;;;;;;;6.20;1.27;;;24.90;62.70;;;;;;5051004;28;20098;-76
2022/07/22 12:29:20;;;;;;;5.47;1.40;;;24.80;62.20;;;;;;5053937;28;20033;-75
2022/07/22 12:31:52;;;;;;;8.35;1.63;;;24.90;61.50;;;;;;5060010;28;20051;-75
2022/07/22 12:34:30;;;;;;;4.88;1.33;;;25.10;62.50;;;;;;5066931;28;20664;-73
2022/07/22 12:36:56;;;;;;;5.82;1.50;;;25.10;62.10;;;;;;5056825;28;20023;-76
2022/07/22 12:39:21;;;;;;;5.57;1.60;;;25.20;61.30;;;;;;5070106;28;20112;-75
2022/07/22 12:41:53;;;;;;;4.95;0.98;;;25.30;60.20;;;;;;5068091;28;20182;-76